createdAt,value
2022-07-28T00:04:49.311Z,1.92
2022-07-28T00:09:42.755Z,2.30
2022-07-28T00:14:36.331Z,1.90
2022-07-28T00:19:31.388Z,1.70
2022-07-28T00:24:24.852Z,1.92
2022-07-28T00:29:18.251Z,1.73
2022-07-28T00:34:12.151Z,1.63
2022-07-28T00:39:07.326Z,2.10
2022-07-28T00:44:00.641Z,1.90
2022-07-28T00:48:56.406Z,2.00
2022-07-28T00:53:50.316Z,2.90
2022-07-28T00:58:45.054Z,2.83
2022-07-28T01:03:43.987Z,2.40
2022-07-28T01:08:54.524Z,2.10
2022-07-28T01:14:03.921Z,2.10
2022-07-28T01:19:09.630Z,2.25
2022-07-28T01:24:24.090Z,2.38
2022-07-28T01:30:00.543Z,2.08
2022-07-28T01:35:01.880Z,2.20
2022-07-28T01:40:04.494Z,2.33
2022-07-28T01:45:05.250Z,2.25
2022-07-28T01:50:06.335Z,2.58
2022-07-28T01:55:02.950Z,2.38
2022-07-28T01:59:58.811Z,2.25
2022-07-28T02:04:57.008Z,2.20
2022-07-28T02:09:52.732Z,2.25
2022-07-28T02:14:51.420Z,2.40
2022-07-28T02:19:48.756Z,2.47
2022-07-28T02:24:46.204Z,2.55
2022-07-28T02:30:02.668Z,2.53
2022-07-28T02:35:05.436Z,2.72
2022-07-28T02:40:01.508Z,2.40
2022-07-28T02:45:01.728Z,2.55
2022-07-28T02:49:57.440Z,2.80
2022-07-28T02:54:53.084Z,2.58
2022-07-28T02:59:48.469Z,2.80
2022-07-28T03:05:01.705Z,2.67
2022-07-28T03:09:55.567Z,2.50
2022-07-28T03:14:49.153Z,2.85
2022-07-28T03:19:44.058Z,2.38
2022-07-28T03:24:39.898Z,2.72
2022-07-28T03:29:37.417Z,2.33
2022-07-28T03:34:31.091Z,3.03
2022-07-28T03:39:32.576Z,3.08
2022-07-28T03:44:28.971Z,2.60
2022-07-28T03:49:23.247Z,2.72
2022-07-28T03:54:17.033Z,2.92
2022-07-28T03:59:12.425Z,2.60
2022-07-28T04:04:06.539Z,2.80
2022-07-28T04:08:59.887Z,2.90
2022-07-28T04:13:53.556Z,3.22
2022-07-28T04:18:48.576Z,2.60
2022-07-28T04:23:42.090Z,3.10
2022-07-28T04:28:36.093Z,3.38
2022-07-28T04:33:29.460Z,3.45
2022-07-28T04:38:24.228Z,3.45
2022-07-28T04:43:17.968Z,3.03
2022-07-28T04:48:12.418Z,2.92
2022-07-28T04:53:05.800Z,3.25
2022-07-28T04:58:00.461Z,3.67
2022-07-28T05:02:53.838Z,3.38
2022-07-28T05:07:47.310Z,3.20
2022-07-28T05:12:41.147Z,3.50
2022-07-28T05:17:36.951Z,3.15
2022-07-28T05:22:30.796Z,3.58
2022-07-28T05:27:24.486Z,3.10
2022-07-28T05:32:18.237Z,2.97
2022-07-28T05:37:13.160Z,3.17
2022-07-28T05:42:07.186Z,3.28
2022-07-28T05:47:00.513Z,3.33
2022-07-28T05:51:53.831Z,3.25
2022-07-28T05:56:50.442Z,2.80
2022-07-28T06:01:43.936Z,2.80
2022-07-28T06:06:37.735Z,3.08
2022-07-28T06:11:31.105Z,3.10
2022-07-28T06:16:26.100Z,3.10
2022-07-28T06:21:19.740Z,3.08
2022-07-28T06:26:13.113Z,3.10
2022-07-28T06:31:06.664Z,3.17
2022-07-28T06:36:01.456Z,2.90
2022-07-28T06:40:54.812Z,3.20
2022-07-28T06:45:48.295Z,3.05
2022-07-28T06:50:45.989Z,3.03
2022-07-28T06:55:41.372Z,3.10
2022-07-28T07:00:34.895Z,2.90
2022-07-28T07:05:30.026Z,2.88
2022-07-28T07:10:23.551Z,3.15
2022-07-28T07:15:18.320Z,2.67
2022-07-28T07:20:14.325Z,3.22
2022-07-28T07:25:11.369Z,3.22
2022-07-28T07:30:06.177Z,3.20
2022-07-28T07:35:00.963Z,3.60
2022-07-28T07:39:54.310Z,3.97
2022-07-28T07:44:50.307Z,3.17
2022-07-28T07:49:46.100Z,3.10
2022-07-28T07:54:41.335Z,2.90
2022-07-28T07:59:34.698Z,3.17
2022-07-28T08:04:28.798Z,3.25
2022-07-28T08:09:22.462Z,3.33
2022-07-28T08:14:17.999Z,3.58
2022-07-28T08:19:11.826Z,3.05
2022-07-28T08:24:05.965Z,2.72
2022-07-28T08:28:59.348Z,3.30
2022-07-28T08:33:54.909Z,3.67
2022-07-28T08:38:48.473Z,3.03
2022-07-28T08:43:43.714Z,3.25
2022-07-28T08:48:39.227Z,2.80
2022-07-28T08:53:36.763Z,3.15
2022-07-28T08:58:33.412Z,3.45
2022-07-28T09:03:29.170Z,3.20
2022-07-28T09:08:23.154Z,3.15
2022-07-28T09:13:19.219Z,3.15
2022-07-28T09:18:12.650Z,3.40
2022-07-28T09:23:33.495Z,2.92
2022-07-28T09:28:23.939Z,2.78
2022-07-28T09:33:42.929Z,2.65
2022-07-28T09:38:42.937Z,3.10
2022-07-28T09:43:40.747Z,3.00
2022-07-28T09:48:34.324Z,3.28
2022-07-28T09:53:28.876Z,2.92
2022-07-28T09:58:22.423Z,3.45
2022-07-28T10:03:29.339Z,3.33
2022-07-28T10:08:42.241Z,2.40
2022-07-28T10:13:37.130Z,2.60
2022-07-28T10:18:31.912Z,3.00
2022-07-28T10:23:25.441Z,3.17
2022-07-28T10:28:23.242Z,3.25
2022-07-28T10:33:18.105Z,3.42
2022-07-28T10:38:16.260Z,3.08
2022-07-28T10:43:10.263Z,3.10
2022-07-28T10:48:06.163Z,3.25
2022-07-28T10:53:02.903Z,3.00
2022-07-28T10:58:12.384Z,2.60
2022-07-28T11:03:14.059Z,3.03
2022-07-28T11:08:10.796Z,2.95
2022-07-28T11:13:06.137Z,2.75
2022-07-28T11:18:09.835Z,3.00
2022-07-28T11:23:55.961Z,2.78
2022-07-28T11:29:20.537Z,2.45
2022-07-28T11:34:15.451Z,3.10
2022-07-28T11:39:25.354Z,2.83
2022-07-28T11:44:28.356Z,3.00
2022-07-28T11:49:28.065Z,2.53
2022-07-28T11:54:21.700Z,2.83
2022-07-28T11:59:16.576Z,2.88
2022-07-28T12:04:14.866Z,2.70
2022-07-28T12:09:10.757Z,2.50
2022-07-28T12:14:06.214Z,2.38
2022-07-28T12:19:01.692Z,2.63
2022-07-28T12:23:56.751Z,2.50
2022-07-28T12:28:52.273Z,3.00
2022-07-28T12:33:45.723Z,2.80
2022-07-28T12:38:39.347Z,2.70
2022-07-28T12:43:34.385Z,2.83
2022-07-28T12:48:27.936Z,2.80
2022-07-28T12:53:22.896Z,2.70
2022-07-28T12:58:36.179Z,2.30
2022-07-28T13:03:31.034Z,2.00
2022-07-28T13:08:27.653Z,2.20
2022-07-28T13:13:22.985Z,2.13
2022-07-28T13:18:17.746Z,2.72
2022-07-28T13:23:11.111Z,2.60
2022-07-28T13:28:04.575Z,2.50
2022-07-28T13:32:58.638Z,2.55
2022-07-28T13:37:53.449Z,2.40
2022-07-28T13:42:52.746Z,2.17
2022-07-28T13:47:52.178Z,2.10
2022-07-28T13:52:45.928Z,2.10
2022-07-28T14:23:34.095Z,2.20
2022-07-28T14:28:27.460Z,2.70
2022-07-28T14:33:20.983Z,2.60
2022-07-28T14:38:52.458Z,2.45
2022-07-28T14:43:29.322Z,2.25
2022-07-28T14:48:22.783Z,2.60
2022-07-28T14:53:17.283Z,2.28
2022-07-28T14:58:10.696Z,2.47
2022-07-28T15:03:05.725Z,2.38
2022-07-28T15:07:59.180Z,2.58
2022-07-28T15:12:53.007Z,2.40
2022-07-28T15:17:47.759Z,2.50
2022-07-28T15:27:53.624Z,2.42
2022-07-28T15:32:55.981Z,2.35
2022-07-28T15:37:50.460Z,2.35
2022-07-28T15:42:43.800Z,2.13
2022-07-28T15:47:38.767Z,2.40
2022-07-28T15:52:32.070Z,2.40
2022-07-28T15:57:25.432Z,2.20
2022-07-28T16:02:31.033Z,2.40
2022-07-28T16:07:28.303Z,2.33
2022-07-28T16:12:22.866Z,2.60
2022-07-28T16:17:16.649Z,2.30
2022-07-28T16:22:10.101Z,2.47
2022-07-28T16:27:04.936Z,2.20
2022-07-28T16:31:58.343Z,2.53
2022-07-28T16:36:51.782Z,2.42
2022-07-28T16:41:46.767Z,2.67
2022-07-28T16:46:42.347Z,2.53
2022-07-28T16:51:35.786Z,2.63
2022-07-28T16:56:29.423Z,2.47
2022-07-28T17:01:22.809Z,2.45
2022-07-28T17:06:17.685Z,2.60
2022-07-28T17:21:35.325Z,2.35
2022-07-28T17:27:32.574Z,2.70
2022-07-28T17:59:51.013Z,4.40
2022-07-28T18:04:47.481Z,4.40
2022-07-28T18:09:41.952Z,3.78
2022-07-28T18:21:27.085Z,3.97
2022-07-28T18:26:24.599Z,4.25
2022-07-28T18:36:30.079Z,4.38
2022-07-28T18:41:26.664Z,3.67
2022-07-28T18:56:41.093Z,4.00
2022-07-28T19:01:34.952Z,3.75
2022-07-28T19:06:29.335Z,3.53
2022-07-28T19:11:22.872Z,3.38
2022-07-28T19:16:20.167Z,3.45
2022-07-28T19:42:10.659Z,2.33
2022-07-28T19:47:04.263Z,2.28
2022-07-28T19:51:58.012Z,2.28
2022-07-28T20:44:29.944Z,1.38
